sensor_id;sensor_type;location;lat;lon;timestamp;P1;durP1;ratioP1;P2;durP2;ratioP2
52268;SDS011;38224;50.950;4.100;2022-09-12T00:01:36;14.53;;;12.50;;
52268;SDS011;38224;50.950;4.100;2022-09-12T00:04:02;16.75;;;12.88;;
52268;SDS011;38224;50.950;4.100;2022-09-12T00:06:32;15.65;;;13.05;;
52268;SDS011;38224;50.950;4.100;2022-09-12T00:08:58;17.00;;;13.40;;
52268;SDS011;38224;50.950;4.100;2022-09-12T00:11:24;18.02;;;14.63;;
52268;SDS011;38224;50.950;4.100;2022-09-12T00:13:50;25.25;;;15.68;;
52268;SDS011;38224;50.950;4.100;2022-09-12T00:16:16;20.55;;;15.13;;
52268;SDS011;38224;50.950;4.100;2022-09-12T00:18:43;20.75;;;14.93;;
52268;SDS011;38224;50.950;4.100;2022-09-12T00:21:10;22.27;;;15.27;;
52268;SDS011;38224;50.950;4.100;2022-09-12T00:23:35;20.03;;;16.27;;
52268;SDS011;38224;50.950;4.100;2022-09-12T00:26:02;22.55;;;14.52;;
52268;SDS011;38224;50.950;4.100;2022-09-12T00:28:28;23.90;;;16.00;;
52268;SDS011;38224;50.950;4.100;2022-09-12T00:30:53;20.53;;;14.23;;
52268;SDS011;38224;50.950;4.100;2022-09-12T00:33:18;22.80;;;16.90;;
52268;SDS011;38224;50.950;4.100;2022-09-12T00:35:45;21.17;;;16.03;;
52268;SDS011;38224;50.950;4.100;2022-09-12T00:38:11;25.35;;;16.85;;
52268;SDS011;38224;50.950;4.100;2022-09-12T00:40:37;19.42;;;16.40;;
52268;SDS011;38224;50.950;4.100;2022-09-12T00:43:02;20.50;;;16.83;;
52268;SDS011;38224;50.950;4.100;2022-09-12T00:45:28;26.77;;;19.17;;
52268;SDS011;38224;50.950;4.100;2022-09-12T00:47:54;21.40;;;17.90;;
52268;SDS011;38224;50.950;4.100;2022-09-12T00:50:20;22.58;;;17.00;;
52268;SDS011;38224;50.950;4.100;2022-09-12T00:52:47;22.10;;;17.95;;
52268;SDS011;38224;50.950;4.100;2022-09-12T00:55:25;23.40;;;17.33;;
52268;SDS011;38224;50.950;4.100;2022-09-12T00:57:56;21.65;;;16.70;;
52268;SDS011;38224;50.950;4.100;2022-09-12T01:00:23;28.58;;;17.67;;
52268;SDS011;38224;50.950;4.100;2022-09-12T01:02:50;23.80;;;18.13;;
52268;SDS011;38224;50.950;4.100;2022-09-12T01:05:17;23.40;;;18.05;;
52268;SDS011;38224;50.950;4.100;2022-09-12T01:07:42;24.45;;;18.10;;
52268;SDS011;38224;50.950;4.100;2022-09-12T01:10:09;25.05;;;17.52;;
52268;SDS011;38224;50.950;4.100;2022-09-12T01:12:34;22.60;;;17.95;;
52268;SDS011;38224;50.950;4.100;2022-09-12T01:15:01;24.83;;;19.73;;
52268;SDS011;38224;50.950;4.100;2022-09-12T01:17:28;24.52;;;19.88;;
52268;SDS011;38224;50.950;4.100;2022-09-12T01:30:04;24.07;;;19.57;;
52268;SDS011;38224;50.950;4.100;2022-09-12T01:37:24;24.63;;;19.10;;
52268;SDS011;38224;50.950;4.100;2022-09-12T01:40:08;24.75;;;17.75;;
52268;SDS011;38224;50.950;4.100;2022-09-12T01:42:44;24.48;;;17.92;;
52268;SDS011;38224;50.950;4.100;2022-09-12T01:48:05;26.35;;;20.17;;
52268;SDS011;38224;50.950;4.100;2022-09-12T01:50:33;24.65;;;19.17;;
52268;SDS011;38224;50.950;4.100;2022-09-12T01:53:07;26.45;;;17.80;;
52268;SDS011;38224;50.950;4.100;2022-09-12T01:55:34;27.60;;;20.55;;
52268;SDS011;38224;50.950;4.100;2022-09-12T02:00:26;30.73;;;20.10;;
52268;SDS011;38224;50.950;4.100;2022-09-12T02:02:54;27.15;;;19.90;;
52268;SDS011;38224;50.950;4.100;2022-09-12T02:08:01;26.35;;;19.42;;
52268;SDS011;38224;50.950;4.100;2022-09-12T02:10:31;32.67;;;21.33;;
52268;SDS011;38224;50.950;4.100;2022-09-12T02:13:06;25.15;;;20.10;;
52268;SDS011;38224;50.950;4.100;2022-09-12T02:15:33;27.67;;;19.90;;
52268;SDS011;38224;50.950;4.100;2022-09-12T02:18:02;31.83;;;22.42;;
52268;SDS011;38224;50.950;4.100;2022-09-12T02:20:29;34.17;;;22.88;;
52268;SDS011;38224;50.950;4.100;2022-09-12T02:22:55;32.90;;;21.15;;
52268;SDS011;38224;50.950;4.100;2022-09-12T02:25:21;31.33;;;22.02;;
52268;SDS011;38224;50.950;4.100;2022-09-12T02:27:49;30.98;;;23.55;;
52268;SDS011;38224;50.950;4.100;2022-09-12T02:30:15;31.60;;;23.20;;
52268;SDS011;38224;50.950;4.100;2022-09-12T02:40:58;25.95;;;19.83;;
52268;SDS011;38224;50.950;4.100;2022-09-12T02:43:23;27.20;;;20.93;;
52268;SDS011;38224;50.950;4.100;2022-09-12T02:45:49;28.83;;;21.30;;
52268;SDS011;38224;50.950;4.100;2022-09-12T02:48:29;25.75;;;19.73;;
52268;SDS011;38224;50.950;4.100;2022-09-12T02:50:55;25.63;;;18.77;;
52268;SDS011;38224;50.950;4.100;2022-09-12T02:53:21;27.88;;;20.50;;
52268;SDS011;38224;50.950;4.100;2022-09-12T02:55:46;29.92;;;21.83;;
52268;SDS011;38224;50.950;4.100;2022-09-12T02:58:13;30.65;;;21.38;;
52268;SDS011;38224;50.950;4.100;2022-09-12T03:00:43;29.40;;;21.38;;
52268;SDS011;38224;50.950;4.100;2022-09-12T03:04:03;27.95;;;20.20;;
52268;SDS011;38224;50.950;4.100;2022-09-12T03:06:00;30.23;;;21.23;;
52268;SDS011;38224;50.950;4.100;2022-09-12T03:13:22;27.50;;;21.50;;
52268;SDS011;38224;50.950;4.100;2022-09-12T03:23:32;31.50;;;21.30;;
52268;SDS011;38224;50.950;4.100;2022-09-12T03:26:03;32.63;;;22.73;;
52268;SDS011;38224;50.950;4.100;2022-09-12T03:28:30;29.55;;;20.88;;
52268;SDS011;38224;50.950;4.100;2022-09-12T03:30:56;38.08;;;20.77;;
52268;SDS011;38224;50.950;4.100;2022-09-12T03:33:23;32.25;;;21.75;;
52268;SDS011;38224;50.950;4.100;2022-09-12T03:35:49;28.08;;;20.67;;
52268;SDS011;38224;50.950;4.100;2022-09-12T03:38:15;25.77;;;20.55;;
52268;SDS011;38224;50.950;4.100;2022-09-12T03:40:40;32.13;;;20.15;;
52268;SDS011;38224;50.950;4.100;2022-09-12T03:43:07;29.88;;;20.02;;
52268;SDS011;38224;50.950;4.100;2022-09-12T03:45:32;26.13;;;20.23;;
52268;SDS011;38224;50.950;4.100;2022-09-12T03:47:58;25.58;;;20.75;;
52268;SDS011;38224;50.950;4.100;2022-09-12T03:50:23;32.17;;;24.02;;
52268;SDS011;38224;50.950;4.100;2022-09-12T03:52:48;31.77;;;24.37;;
52268;SDS011;38224;50.950;4.100;2022-09-12T03:55:14;30.70;;;23.13;;
52268;SDS011;38224;50.950;4.100;2022-09-12T03:57:39;34.72;;;24.73;;
52268;SDS011;38224;50.950;4.100;2022-09-12T04:00:05;33.75;;;23.30;;
52268;SDS011;38224;50.950;4.100;2022-09-12T04:02:32;35.45;;;23.02;;
52268;SDS011;38224;50.950;4.100;2022-09-12T04:05:00;36.03;;;24.48;;
52268;SDS011;38224;50.950;4.100;2022-09-12T04:07:25;30.13;;;23.00;;
52268;SDS011;38224;50.950;4.100;2022-09-12T04:09:51;35.25;;;25.35;;
52268;SDS011;38224;50.950;4.100;2022-09-12T04:12:17;38.10;;;26.00;;
52268;SDS011;38224;50.950;4.100;2022-09-12T04:14:42;39.67;;;27.87;;
52268;SDS011;38224;50.950;4.100;2022-09-12T04:17:07;41.97;;;28.07;;
52268;SDS011;38224;50.950;4.100;2022-09-12T04:19:33;40.63;;;25.83;;
52268;SDS011;38224;50.950;4.100;2022-09-12T04:21:58;36.78;;;25.65;;
52268;SDS011;38224;50.950;4.100;2022-09-12T04:24:23;36.10;;;24.40;;
52268;SDS011;38224;50.950;4.100;2022-09-12T04:26:49;35.67;;;23.63;;
52268;SDS011;38224;50.950;4.100;2022-09-12T04:29:14;31.90;;;23.33;;
52268;SDS011;38224;50.950;4.100;2022-09-12T04:31:39;31.07;;;21.43;;
52268;SDS011;38224;50.950;4.100;2022-09-12T04:34:05;46.92;;;32.88;;
52268;SDS011;38224;50.950;4.100;2022-09-12T04:36:30;30.73;;;20.40;;
52268;SDS011;38224;50.950;4.100;2022-09-12T04:38:58;30.58;;;21.25;;
52268;SDS011;38224;50.950;4.100;2022-09-12T04:41:28;29.90;;;21.67;;
52268;SDS011;38224;50.950;4.100;2022-09-12T04:43:58;32.28;;;21.80;;
52268;SDS011;38224;50.950;4.100;2022-09-12T04:46:28;29.25;;;21.45;;
52268;SDS011;38224;50.950;4.100;2022-09-12T04:48:53;24.80;;;20.17;;
52268;SDS011;38224;50.950;4.100;2022-09-12T04:51:19;28.95;;;19.40;;
52268;SDS011;38224;50.950;4.100;2022-09-12T04:53:49;26.73;;;20.48;;
52268;SDS011;38224;50.950;4.100;2022-09-12T04:56:15;29.30;;;19.83;;
52268;SDS011;38224;50.950;4.100;2022-09-12T04:58:40;33.05;;;22.55;;
52268;SDS011;38224;50.950;4.100;2022-09-12T05:01:09;31.15;;;22.50;;
52268;SDS011;38224;50.950;4.100;2022-09-12T05:03:35;40.80;;;25.77;;
52268;SDS011;38224;50.950;4.100;2022-09-12T05:06:03;37.53;;;25.55;;
52268;SDS011;38224;50.950;4.100;2022-09-12T05:08:29;34.47;;;24.17;;
52268;SDS011;38224;50.950;4.100;2022-09-12T05:10:54;36.40;;;24.85;;
52268;SDS011;38224;50.950;4.100;2022-09-12T05:13:19;36.45;;;24.40;;
52268;SDS011;38224;50.950;4.100;2022-09-12T05:15:55;33.53;;;23.27;;
52268;SDS011;38224;50.950;4.100;2022-09-12T05:18:20;32.60;;;23.40;;
52268;SDS011;38224;50.950;4.100;2022-09-12T05:20:46;34.57;;;23.80;;
52268;SDS011;38224;50.950;4.100;2022-09-12T05:23:11;37.10;;;26.17;;
52268;SDS011;38224;50.950;4.100;2022-09-12T05:25:36;35.65;;;24.85;;
52268;SDS011;38224;50.950;4.100;2022-09-12T05:28:01;40.20;;;26.93;;
52268;SDS011;38224;50.950;4.100;2022-09-12T05:30:27;46.78;;;29.00;;
52268;SDS011;38224;50.950;4.100;2022-09-12T05:32:52;40.53;;;27.67;;
52268;SDS011;38224;50.950;4.100;2022-09-12T05:35:17;41.87;;;29.10;;
52268;SDS011;38224;50.950;4.100;2022-09-12T05:37:42;40.67;;;27.67;;
52268;SDS011;38224;50.950;4.100;2022-09-12T05:40:08;37.00;;;27.03;;
52268;SDS011;38224;50.950;4.100;2022-09-12T05:42:34;40.33;;;28.45;;
52268;SDS011;38224;50.950;4.100;2022-09-12T05:44:59;41.90;;;28.93;;
52268;SDS011;38224;50.950;4.100;2022-09-12T05:47:24;40.33;;;27.90;;
52268;SDS011;38224;50.950;4.100;2022-09-12T05:49:49;39.10;;;26.63;;
52268;SDS011;38224;50.950;4.100;2022-09-12T05:52:16;37.72;;;24.70;;
52268;SDS011;38224;50.950;4.100;2022-09-12T05:54:41;36.23;;;24.40;;
52268;SDS011;38224;50.950;4.100;2022-09-12T05:57:07;32.05;;;21.77;;
52268;SDS011;38224;50.950;4.100;2022-09-12T05:59:32;32.20;;;22.33;;
52268;SDS011;38224;50.950;4.100;2022-09-12T06:01:57;33.10;;;22.95;;
52268;SDS011;38224;50.950;4.100;2022-09-12T06:04:22;38.90;;;22.50;;
52268;SDS011;38224;50.950;4.100;2022-09-12T06:06:48;39.97;;;24.17;;
52268;SDS011;38224;50.950;4.100;2022-09-12T06:09:14;39.63;;;25.95;;
52268;SDS011;38224;50.950;4.100;2022-09-12T06:11:40;35.08;;;24.15;;
52268;SDS011;38224;50.950;4.100;2022-09-12T06:14:05;34.25;;;23.92;;
52268;SDS011;38224;50.950;4.100;2022-09-12T06:16:32;36.03;;;21.80;;
52268;SDS011;38224;50.950;4.100;2022-09-12T06:18:58;27.10;;;18.90;;
52268;SDS011;38224;50.950;4.100;2022-09-12T06:21:24;19.20;;;14.93;;
52268;SDS011;38224;50.950;4.100;2022-09-12T06:23:51;17.15;;;13.35;;
52268;SDS011;38224;50.950;4.100;2022-09-12T06:26:17;18.50;;;12.90;;
52268;SDS011;38224;50.950;4.100;2022-09-12T06:28:45;17.10;;;12.07;;
52268;SDS011;38224;50.950;4.100;2022-09-12T06:31:12;19.92;;;11.48;;
52268;SDS011;38224;50.950;4.100;2022-09-12T06:33:39;16.77;;;11.35;;
52268;SDS011;38224;50.950;4.100;2022-09-12T06:36:06;16.42;;;10.63;;
52268;SDS011;38224;50.950;4.100;2022-09-12T06:38:31;22.83;;;11.20;;
52268;SDS011;38224;50.950;4.100;2022-09-12T06:40:57;17.33;;;10.27;;
52268;SDS011;38224;50.950;4.100;2022-09-12T06:43:22;20.75;;;10.20;;
52268;SDS011;38224;50.950;4.100;2022-09-12T06:45:48;13.65;;;9.65;;
52268;SDS011;38224;50.950;4.100;2022-09-12T06:48:13;16.33;;;10.73;;
52268;SDS011;38224;50.950;4.100;2022-09-12T06:50:39;20.13;;;10.20;;
52268;SDS011;38224;50.950;4.100;2022-09-12T06:53:04;14.50;;;10.13;;
52268;SDS011;38224;50.950;4.100;2022-09-12T06:55:29;14.57;;;9.57;;
52268;SDS011;38224;50.950;4.100;2022-09-12T06:57:54;13.77;;;9.57;;
52268;SDS011;38224;50.950;4.100;2022-09-12T07:00:19;15.70;;;8.87;;
52268;SDS011;38224;50.950;4.100;2022-09-12T07:02:45;12.40;;;8.60;;
52268;SDS011;38224;50.950;4.100;2022-09-12T07:05:10;15.27;;;9.73;;
52268;SDS011;38224;50.950;4.100;2022-09-12T07:07:35;12.80;;;8.40;;
52268;SDS011;38224;50.950;4.100;2022-09-12T07:10:01;15.37;;;8.83;;
52268;SDS011;38224;50.950;4.100;2022-09-12T07:12:27;12.75;;;8.25;;
52268;SDS011;38224;50.950;4.100;2022-09-12T07:14:53;13.23;;;8.65;;
52268;SDS011;38224;50.950;4.100;2022-09-12T07:17:18;13.03;;;8.83;;
52268;SDS011;38224;50.950;4.100;2022-09-12T07:19:43;10.77;;;8.17;;
52268;SDS011;38224;50.950;4.100;2022-09-12T07:22:08;11.80;;;8.43;;
52268;SDS011;38224;50.950;4.100;2022-09-12T07:24:33;11.93;;;8.07;;
52268;SDS011;38224;50.950;4.100;2022-09-12T07:26:59;12.07;;;6.90;;
52268;SDS011;38224;50.950;4.100;2022-09-12T07:29:24;13.33;;;7.83;;
52268;SDS011;38224;50.950;4.100;2022-09-12T07:31:49;14.07;;;8.07;;
52268;SDS011;38224;50.950;4.100;2022-09-12T07:34:14;10.50;;;7.53;;
52268;SDS011;38224;50.950;4.100;2022-09-12T07:36:41;12.15;;;7.28;;
52268;SDS011;38224;50.950;4.100;2022-09-12T07:39:06;11.93;;;7.53;;
52268;SDS011;38224;50.950;4.100;2022-09-12T07:41:32;17.23;;;7.80;;
52268;SDS011;38224;50.950;4.100;2022-09-12T07:44:00;11.10;;;7.28;;
52268;SDS011;38224;50.950;4.100;2022-09-12T07:46:27;14.25;;;7.22;;
52268;SDS011;38224;50.950;4.100;2022-09-12T07:48:54;11.65;;;7.22;;
52268;SDS011;38224;50.950;4.100;2022-09-12T07:51:21;23.48;;;7.28;;
52268;SDS011;38224;50.950;4.100;2022-09-12T07:53:47;11.32;;;6.88;;
52268;SDS011;38224;50.950;4.100;2022-09-12T07:56:16;14.27;;;7.32;;
52268;SDS011;38224;50.950;4.100;2022-09-12T07:58:42;13.75;;;6.82;;
52268;SDS011;38224;50.950;4.100;2022-09-12T08:01:08;14.20;;;7.13;;
52268;SDS011;38224;50.950;4.100;2022-09-12T08:03:37;13.77;;;7.78;;
52268;SDS011;38224;50.950;4.100;2022-09-12T08:12:02;9.65;;;6.47;;
52268;SDS011;38224;50.950;4.100;2022-09-12T08:14:27;10.13;;;6.68;;
52268;SDS011;38224;50.950;4.100;2022-09-12T08:16:54;13.43;;;6.30;;
52268;SDS011;38224;50.950;4.100;2022-09-12T08:19:19;14.20;;;6.27;;
52268;SDS011;38224;50.950;4.100;2022-09-12T08:21:46;10.02;;;5.75;;
52268;SDS011;38224;50.950;4.100;2022-09-12T08:24:11;8.57;;;5.83;;
52268;SDS011;38224;50.950;4.100;2022-09-12T08:26:37;13.03;;;5.57;;
52268;SDS011;38224;50.950;4.100;2022-09-12T08:29:02;15.10;;;5.88;;
52268;SDS011;38224;50.950;4.100;2022-09-12T08:31:28;10.32;;;5.38;;
52268;SDS011;38224;50.950;4.100;2022-09-12T08:33:56;7.35;;;5.35;;
52268;SDS011;38224;50.950;4.100;2022-09-12T08:36:22;11.05;;;5.13;;
52268;SDS011;38224;50.950;4.100;2022-09-12T08:38:53;7.95;;;5.10;;
52268;SDS011;38224;50.950;4.100;2022-09-12T08:46:37;7.13;;;4.63;;
52268;SDS011;38224;50.950;4.100;2022-09-12T08:49:08;8.70;;;4.20;;
52268;SDS011;38224;50.950;4.100;2022-09-12T08:51:34;7.72;;;4.00;;
52268;SDS011;38224;50.950;4.100;2022-09-12T08:54:00;8.02;;;3.92;;
52268;SDS011;38224;50.950;4.100;2022-09-12T08:56:26;6.25;;;3.83;;
52268;SDS011;38224;50.950;4.100;2022-09-12T08:58:53;7.13;;;4.13;;
52268;SDS011;38224;50.950;4.100;2022-09-12T09:09:25;9.75;;;3.83;;
52268;SDS011;38224;50.950;4.100;2022-09-12T09:12:03;5.23;;;3.57;;
52268;SDS011;38224;50.950;4.100;2022-09-12T09:17:23;7.35;;;3.78;;
52268;SDS011;38224;50.950;4.100;2022-09-12T09:19:52;7.18;;;4.28;;
52268;SDS011;38224;50.950;4.100;2022-09-12T09:22:41;7.28;;;4.10;;
52268;SDS011;38224;50.950;4.100;2022-09-12T09:25:08;7.43;;;3.50;;
52268;SDS011;38224;50.950;4.100;2022-09-12T09:27:36;8.35;;;3.38;;
52268;SDS011;38224;50.950;4.100;2022-09-12T09:30:07;10.70;;;3.15;;
52268;SDS011;38224;50.950;4.100;2022-09-12T09:32:37;7.53;;;3.70;;
52268;SDS011;38224;50.950;4.100;2022-09-12T09:35:15;6.80;;;3.03;;
52268;SDS011;38224;50.950;4.100;2022-09-12T09:37:41;6.70;;;3.15;;
52268;SDS011;38224;50.950;4.100;2022-09-12T09:45:16;7.77;;;4.17;;
52268;SDS011;38224;50.950;4.100;2022-09-12T09:48:30;8.98;;;3.13;;
52268;SDS011;38224;50.950;4.100;2022-09-12T09:50:29;8.27;;;3.10;;
52268;SDS011;38224;50.950;4.100;2022-09-12T09:52:57;8.05;;;2.83;;
52268;SDS011;38224;50.950;4.100;2022-09-12T09:55:27;4.30;;;2.75;;
52268;SDS011;38224;50.950;4.100;2022-09-12T09:57:54;8.57;;;3.83;;
52268;SDS011;38224;50.950;4.100;2022-09-12T10:00:41;9.30;;;2.90;;
52268;SDS011;38224;50.950;4.100;2022-09-12T10:03:20;9.45;;;3.17;;
52268;SDS011;38224;50.950;4.100;2022-09-12T10:05:51;9.43;;;3.10;;
52268;SDS011;38224;50.950;4.100;2022-09-12T10:13:23;5.43;;;2.08;;
52268;SDS011;38224;50.950;4.100;2022-09-12T10:15:56;3.70;;;2.20;;
52268;SDS011;38224;50.950;4.100;2022-09-12T10:18:35;5.20;;;2.10;;
52268;SDS011;38224;50.950;4.100;2022-09-12T10:21:05;3.60;;;2.30;;
52268;SDS011;38224;50.950;4.100;2022-09-12T10:23:36;8.15;;;2.80;;
52268;SDS011;38224;50.950;4.100;2022-09-12T10:26:07;4.55;;;2.33;;
52268;SDS011;38224;50.950;4.100;2022-09-12T10:30:59;12.67;;;2.60;;
52268;SDS011;38224;50.950;4.100;2022-09-12T10:33:27;5.13;;;2.60;;
52268;SDS011;38224;50.950;4.100;2022-09-12T10:35:53;5.00;;;2.25;;
52268;SDS011;38224;50.950;4.100;2022-09-12T10:38:22;11.25;;;3.30;;
52268;SDS011;38224;50.950;4.100;2022-09-12T10:41:22;7.30;;;2.30;;
52268;SDS011;38224;50.950;4.100;2022-09-12T10:43:40;3.95;;;2.47;;
52268;SDS011;38224;50.950;4.100;2022-09-12T10:48:44;3.25;;;2.40;;
52268;SDS011;38224;50.950;4.100;2022-09-12T10:53:47;4.18;;;2.45;;
52268;SDS011;38224;50.950;4.100;2022-09-12T10:56:13;7.05;;;2.00;;
52268;SDS011;38224;50.950;4.100;2022-09-12T11:06:11;3.13;;;1.88;;
52268;SDS011;38224;50.950;4.100;2022-09-12T11:24:28;1.98;;;1.40;;
52268;SDS011;38224;50.950;4.100;2022-09-12T11:27:01;7.63;;;1.92;;
52268;SDS011;38224;50.950;4.100;2022-09-12T11:34:22;9.40;;;1.87;;
52268;SDS011;38224;50.950;4.100;2022-09-12T11:39:37;6.00;;;1.52;;
52268;SDS011;38224;50.950;4.100;2022-09-12T11:42:03;4.45;;;1.50;;
52268;SDS011;38224;50.950;4.100;2022-09-12T11:44:42;6.10;;;1.60;;
52268;SDS011;38224;50.950;4.100;2022-09-12T11:47:10;5.63;;;1.92;;
52268;SDS011;38224;50.950;4.100;2022-09-12T11:52:15;6.55;;;1.77;;
52268;SDS011;38224;50.950;4.100;2022-09-12T11:55:00;3.80;;;1.77;;
52268;SDS011;38224;50.950;4.100;2022-09-12T11:57:29;5.60;;;1.70;;
52268;SDS011;38224;50.950;4.100;2022-09-12T11:59:59;4.72;;;2.05;;
52268;SDS011;38224;50.950;4.100;2022-09-12T12:02:29;5.47;;;1.83;;
52268;SDS011;38224;50.950;4.100;2022-09-12T12:04:58;2.70;;;1.73;;
52268;SDS011;38224;50.950;4.100;2022-09-12T12:07:26;4.40;;;1.80;;
52268;SDS011;38224;50.950;4.100;2022-09-12T12:09:53;2.42;;;1.75;;
52268;SDS011;38224;50.950;4.100;2022-09-12T12:12:24;2.85;;;1.80;;
52268;SDS011;38224;50.950;4.100;2022-09-12T12:14:50;3.30;;;1.70;;
52268;SDS011;38224;50.950;4.100;2022-09-12T12:17:26;2.78;;;1.55;;
52268;SDS011;38224;50.950;4.100;2022-09-12T12:19:58;4.10;;;1.48;;
52268;SDS011;38224;50.950;4.100;2022-09-12T12:22:23;4.40;;;2.28;;
52268;SDS011;38224;50.950;4.100;2022-09-12T12:27:54;50.88;;;4.70;;
52268;SDS011;38224;50.950;4.100;2022-09-12T12:31:03;7.28;;;1.58;;
52268;SDS011;38224;50.950;4.100;2022-09-12T12:37:59;3.90;;;1.70;;
52268;SDS011;38224;50.950;4.100;2022-09-12T12:40:25;6.40;;;1.70;;
52268;SDS011;38224;50.950;4.100;2022-09-12T12:47:54;3.03;;;2.00;;
52268;SDS011;38224;50.950;4.100;2022-09-12T12:50:21;5.05;;;1.80;;
52268;SDS011;38224;50.950;4.100;2022-09-12T12:53:03;6.78;;;1.88;;
52268;SDS011;38224;50.950;4.100;2022-09-12T12:58:17;7.25;;;2.17;;
52268;SDS011;38224;50.950;4.100;2022-09-12T13:00:46;8.50;;;1.83;;
52268;SDS011;38224;50.950;4.100;2022-09-12T13:03:33;4.40;;;1.92;;
52268;SDS011;38224;50.950;4.100;2022-09-12T13:05:59;9.77;;;2.03;;
52268;SDS011;38224;50.950;4.100;2022-09-12T13:08:29;2.78;;;1.73;;
52268;SDS011;38224;50.950;4.100;2022-09-12T13:10:57;2.72;;;1.50;;
52268;SDS011;38224;50.950;4.100;2022-09-12T13:13:47;6.68;;;1.52;;
52268;SDS011;38224;50.950;4.100;2022-09-12T13:16:09;3.22;;;1.55;;
52268;SDS011;38224;50.950;4.100;2022-09-12T13:18:53;5.15;;;2.08;;
52268;SDS011;38224;50.950;4.100;2022-09-12T13:21:19;6.38;;;1.88;;
52268;SDS011;38224;50.950;4.100;2022-09-12T13:24:31;7.18;;;2.00;;
52268;SDS011;38224;50.950;4.100;2022-09-12T13:26:34;7.10;;;1.92;;
52268;SDS011;38224;50.950;4.100;2022-09-12T13:29:23;10.85;;;2.50;;
52268;SDS011;38224;50.950;4.100;2022-09-12T13:31:53;3.65;;;1.60;;
52268;SDS011;38224;50.950;4.100;2022-09-12T13:34:23;6.93;;;1.75;;
52268;SDS011;38224;50.950;4.100;2022-09-12T13:39:24;4.75;;;1.20;;
52268;SDS011;38224;50.950;4.100;2022-09-12T13:44:38;3.47;;;1.50;;
52268;SDS011;38224;50.950;4.100;2022-09-12T13:47:06;10.50;;;1.92;;
52268;SDS011;38224;50.950;4.100;2022-09-12T13:49:35;3.38;;;1.60;;
52268;SDS011;38224;50.950;4.100;2022-09-12T13:52:02;3.95;;;1.63;;
52268;SDS011;38224;50.950;4.100;2022-09-12T13:54:28;4.15;;;1.90;;
52268;SDS011;38224;50.950;4.100;2022-09-12T13:56:54;6.15;;;1.60;;
52268;SDS011;38224;50.950;4.100;2022-09-12T13:59:20;3.63;;;1.90;;
52268;SDS011;38224;50.950;4.100;2022-09-12T14:01:46;6.77;;;2.30;;
52268;SDS011;38224;50.950;4.100;2022-09-12T14:06:58;7.25;;;2.63;;
52268;SDS011;38224;50.950;4.100;2022-09-12T14:09:25;4.40;;;1.50;;
52268;SDS011;38224;50.950;4.100;2022-09-12T14:11:54;4.30;;;1.80;;
52268;SDS011;38224;50.950;4.100;2022-09-12T14:16:51;4.82;;;1.55;;
52268;SDS011;38224;50.950;4.100;2022-09-12T14:19:19;4.80;;;2.10;;
52268;SDS011;38224;50.950;4.100;2022-09-12T14:21:45;5.15;;;1.48;;
52268;SDS011;38224;50.950;4.100;2022-09-12T14:24:11;4.88;;;1.73;;
52268;SDS011;38224;50.950;4.100;2022-09-12T14:26:37;6.25;;;1.90;;
52268;SDS011;38224;50.950;4.100;2022-09-12T14:29:04;5.40;;;1.75;;
52268;SDS011;38224;50.950;4.100;2022-09-12T14:31:31;8.15;;;1.80;;
52268;SDS011;38224;50.950;4.100;2022-09-12T14:34:13;2.72;;;1.40;;
52268;SDS011;38224;50.950;4.100;2022-09-12T14:36:40;3.50;;;1.80;;
52268;SDS011;38224;50.950;4.100;2022-09-12T14:39:14;5.05;;;1.77;;
52268;SDS011;38224;50.950;4.100;2022-09-12T14:41:40;4.05;;;1.80;;
52268;SDS011;38224;50.950;4.100;2022-09-12T14:44:07;3.97;;;1.83;;
52268;SDS011;38224;50.950;4.100;2022-09-12T14:46:35;2.85;;;1.67;;
52268;SDS011;38224;50.950;4.100;2022-09-12T14:49:20;2.97;;;1.45;;
52268;SDS011;38224;50.950;4.100;2022-09-12T14:57:01;4.25;;;1.70;;
52268;SDS011;38224;50.950;4.100;2022-09-12T14:59:28;4.90;;;1.70;;
52268;SDS011;38224;50.950;4.100;2022-09-12T15:04:37;3.05;;;1.60;;
52268;SDS011;38224;50.950;4.100;2022-09-12T15:07:12;8.73;;;1.60;;
52268;SDS011;38224;50.950;4.100;2022-09-12T15:09:38;4.45;;;1.60;;
52268;SDS011;38224;50.950;4.100;2022-09-12T15:12:03;4.63;;;1.40;;
52268;SDS011;38224;50.950;4.100;2022-09-12T15:14:29;3.90;;;1.67;;
52268;SDS011;38224;50.950;4.100;2022-09-12T15:16:54;9.20;;;1.67;;
52268;SDS011;38224;50.950;4.100;2022-09-12T15:19:20;3.77;;;1.50;;
52268;SDS011;38224;50.950;4.100;2022-09-12T15:21:45;6.50;;;1.70;;
52268;SDS011;38224;50.950;4.100;2022-09-12T15:24:10;4.77;;;1.50;;
52268;SDS011;38224;50.950;4.100;2022-09-12T15:26:35;3.23;;;1.43;;
52268;SDS011;38224;50.950;4.100;2022-09-12T15:29:01;11.00;;;1.77;;
52268;SDS011;38224;50.950;4.100;2022-09-12T15:31:28;3.45;;;2.00;;
52268;SDS011;38224;50.950;4.100;2022-09-12T15:33:53;3.10;;;1.50;;
52268;SDS011;38224;50.950;4.100;2022-09-12T15:36:20;6.65;;;1.58;;
52268;SDS011;38224;50.950;4.100;2022-09-12T15:38:46;3.15;;;1.63;;
52268;SDS011;38224;50.950;4.100;2022-09-12T15:41:12;2.88;;;1.60;;
52268;SDS011;38224;50.950;4.100;2022-09-12T15:43:38;4.07;;;2.08;;
52268;SDS011;38224;50.950;4.100;2022-09-12T15:46:04;8.75;;;1.70;;
52268;SDS011;38224;50.950;4.100;2022-09-12T15:48:30;2.42;;;1.33;;
52268;SDS011;38224;50.950;4.100;2022-09-12T15:50:56;3.80;;;1.85;;
52268;SDS011;38224;50.950;4.100;2022-09-12T15:53:25;2.92;;;1.70;;
52268;SDS011;38224;50.950;4.100;2022-09-12T15:55:50;3.65;;;1.77;;
52268;SDS011;38224;50.950;4.100;2022-09-12T15:58:15;1.97;;;1.50;;
52268;SDS011;38224;50.950;4.100;2022-09-12T16:00:41;4.47;;;1.30;;
52268;SDS011;38224;50.950;4.100;2022-09-12T16:03:08;4.30;;;1.50;;
52268;SDS011;38224;50.950;4.100;2022-09-12T16:05:41;4.22;;;1.20;;
52268;SDS011;38224;50.950;4.100;2022-09-12T16:08:06;3.63;;;1.50;;
52268;SDS011;38224;50.950;4.100;2022-09-12T16:10:31;2.47;;;1.30;;
52268;SDS011;38224;50.950;4.100;2022-09-12T16:12:56;1.93;;;1.23;;
52268;SDS011;38224;50.950;4.100;2022-09-12T16:15:23;6.07;;;1.40;;
52268;SDS011;38224;50.950;4.100;2022-09-12T16:17:49;6.22;;;1.25;;
52268;SDS011;38224;50.950;4.100;2022-09-12T16:20:14;6.82;;;1.60;;
52268;SDS011;38224;50.950;4.100;2022-09-12T16:22:40;8.55;;;1.58;;
52268;SDS011;38224;50.950;4.100;2022-09-12T16:25:06;9.73;;;2.03;;
52268;SDS011;38224;50.950;4.100;2022-09-12T16:27:32;1.85;;;1.30;;
52268;SDS011;38224;50.950;4.100;2022-09-12T16:29:57;2.40;;;1.35;;
52268;SDS011;38224;50.950;4.100;2022-09-12T16:32:23;2.35;;;1.15;;
52268;SDS011;38224;50.950;4.100;2022-09-12T16:34:48;3.50;;;1.38;;
52268;SDS011;38224;50.950;4.100;2022-09-12T16:37:15;3.42;;;1.58;;
52268;SDS011;38224;50.950;4.100;2022-09-12T16:39:40;8.07;;;1.40;;
52268;SDS011;38224;50.950;4.100;2022-09-12T16:42:05;3.35;;;1.30;;
52268;SDS011;38224;50.950;4.100;2022-09-12T16:44:30;2.53;;;1.20;;
52268;SDS011;38224;50.950;4.100;2022-09-12T16:46:56;7.83;;;1.50;;
52268;SDS011;38224;50.950;4.100;2022-09-12T16:49:21;4.32;;;1.25;;
52268;SDS011;38224;50.950;4.100;2022-09-12T16:51:47;3.80;;;1.20;;
52268;SDS011;38224;50.950;4.100;2022-09-12T16:54:12;4.00;;;1.17;;
52268;SDS011;38224;50.950;4.100;2022-09-12T16:56:38;1.75;;;1.20;;
52268;SDS011;38224;50.950;4.100;2022-09-12T16:59:03;1.88;;;1.25;;
52268;SDS011;38224;50.950;4.100;2022-09-12T17:01:30;5.45;;;1.50;;
52268;SDS011;38224;50.950;4.100;2022-09-12T17:03:56;2.45;;;1.13;;
52268;SDS011;38224;50.950;4.100;2022-09-12T17:06:22;4.03;;;1.30;;
52268;SDS011;38224;50.950;4.100;2022-09-12T17:08:48;3.42;;;1.48;;
52268;SDS011;38224;50.950;4.100;2022-09-12T17:11:18;5.47;;;1.55;;